Terminal Aerodrome Forecast
Issued by NWS Boston, MA

Home | Current Version | Previous Version | Text Only | Print | Product List | Glossary On
Versions: 1 2 3 4 5 6 7 8 9 10 11 12 13 14 15 16 17 18 19 20 21 22 23 24 25 26 27 28 29 30 31 32 33 34 35 36 37 38 39 40 41 42 43 44 45 46 47
000
FTUS41 KBOX 270547 CCA
TAFPVD
TAF COR
KPVD 270547Z 2706/2806 01026G34KT 3/4SM -SN BLSN BR OVC011
     FM271000 01028G45KT 1/4SM +SN BLSN OVC008
     FM271800 35026G47KT 1/2SM SN BLSN OVC003
     FM272100 35023G39KT 1/2SM SN BLSN OVC008
     FM280000 34019G37KT 1SM -SN BLSN OVC008
     FM280300 34017G28KT P6SM OVC008=

USA.gov is the U.S. government's official web portal to all federal, state and local government web resources and services.